WetterOnline ( https://www.wetteronline.de )

Wetter aktuell Adenau

Aktuelles Wetter: Nürburg-Barweiler (488m)

6-stündlich | Neueste Meldungen
Ortszeit Temperatur Wetter
Fr, 01.03. 1:00 3.3° C fast wolkenlos
Do, 29.02. 19:00 6.5° C bedeckt
Do, 29.02. 13:00 7.3° C bedeckt
Do, 29.02. 7:00 -0.3° C leicht bewölkt
Do, 29.02. 1:00 1.2° C leicht bewölkt
Mi, 28.02. 19:00 5.4° C bedeckt
Mi, 28.02. 13:00 7.4° C leicht bewölkt
Mi, 28.02. 7:00 -0.4° C Nebel
Ortszeit Temperatur Wetter
Fr, 01.03. 1:30 3.9° C wolkenlos
Fr, 01.03. 1:20 3.9° C wolkenlos
Fr, 01.03. 1:10 3.5° C wolkenlos
Fr, 01.03. 1:00 3.3° C fast wolkenlos
Fr, 01.03. 0:50 3.3° C fast wolkenlos
Fr, 01.03. 0:40 3.3° C leicht bewölkt
Fr, 01.03. 0:30 3.4° C bedeckt
Fr, 01.03. 0:00 3.4° C wolkig
Do, 29.02. 23:30 3.8° C wolkenlos
Do, 29.02. 23:00 4.0° C bewölkt
Do, 29.02. 22:30 4.4° C bewölkt
Ortszeit Relative Feuchte Sichtweite
Fr, 01.03. 1:00 78% 30 km
Do, 29.02. 19:00 56% 65 km
Do, 29.02. 13:00 49% 55 km
Do, 29.02. 7:00 96% 6 km
Do, 29.02. 1:00 93% 7 km
Mi, 28.02. 19:00 69% 45 km
Mi, 28.02. 13:00 57% 55 km
Mi, 28.02. 7:00 99% <100 m
Ortszeit Relative Feuchte Sichtweite
Fr, 01.03. 1:30 78% 27 km
Fr, 01.03. 1:20 78% -
Fr, 01.03. 1:10 80% -
Fr, 01.03. 1:00 78% 30 km
Fr, 01.03. 0:50 78% -
Fr, 01.03. 0:40 77% -
Fr, 01.03. 0:30 77% 35 km
Fr, 01.03. 0:00 76% 40 km
Do, 29.02. 23:30 73% 40 km
Do, 29.02. 23:00 72% 35 km
Do, 29.02. 22:30 69% 45 km
Ortszeit Niederschlagsmenge Niederschlagsart
Fr, 01.03. 1:00 0.0 l/m2 in 6 Std. -
Do, 29.02. 19:00 0.0 l/m2 in 12 Std. -
Do, 29.02. 13:00 0.0 l/m2 in 6 Std. -
Do, 29.02. 7:00 0.0 l/m2 in 12 Std. -
Do, 29.02. 1:00 0.0 l/m2 in 6 Std. -
Mi, 28.02. 19:00 0.0 l/m2 in 12 Std. -
Mi, 28.02. 13:00 0.0 l/m2 in 6 Std. -
Mi, 28.02. 7:00 0.0 l/m2 in 12 Std. -
Ortszeit Niederschlagsmenge Niederschlagsart
Fr, 01.03. 1:30 0.0 l/m2 in 30 Min -
Fr, 01.03. 1:20 keine Meldung -
Fr, 01.03. 1:10 keine Meldung -
Fr, 01.03. 1:00 0.0 l/m2 in 1 Std. -
Fr, 01.03. 0:50 keine Meldung -
Fr, 01.03. 0:40 keine Meldung -
Fr, 01.03. 0:30 0.0 l/m2 in 30 Min -
Fr, 01.03. 0:00 0.0 l/m2 in 1 Std. -
Do, 29.02. 23:30 0.0 l/m2 in 30 Min -
Do, 29.02. 23:00 0.0 l/m2 in 1 Std. -
Do, 29.02. 22:30 0.0 l/m2 in 30 Min -
Ortszeit Stärke Spitze Richtung
km/h Bft. km/h Grad Sektor
Fr, 01.03. 1:00 9 2 28 180° S
Do, 29.02. 19:00 9 2 28 170° S
Do, 29.02. 13:00 19 3 33 220° SW
Do, 29.02. 7:00 11 2 25 190° S
Do, 29.02. 1:00 11 2 14 190° S
Mi, 28.02. 19:00 7 2 22 170° S
Mi, 28.02. 13:00 4 1 11 250° W
Mi, 28.02. 7:00 4 1 11 230° SW
Ortszeit Stärke Spitze Richtung
km/h Bft. km/h Grad Sektor
Fr, 01.03. 1:30 14 3 29 170° S
Fr, 01.03. 1:20 14 3 - 170° S
Fr, 01.03. 1:10 11 2 - 170° S
Fr, 01.03. 1:00 9 2 24 180° S
Fr, 01.03. 0:50 9 2 - 180° S
Fr, 01.03. 0:40 7 2 - 200° S
Fr, 01.03. 0:30 13 3 22 170° S
Fr, 01.03. 0:00 7 2 18 160° S
Do, 29.02. 23:30 9 2 17 190° S
Do, 29.02. 23:00 9 2 22 170° S
Do, 29.02. 22:30 11 2 22 180° S
Ortszeit Untergrenze Bedeckung Gattung
total tief tief mittel hoch
Fr, 01.03. 1:00 5100 m 1/8 1/8 - - -
Do, 29.02. 19:00 3600 m 8/8 8/8 - - -
Do, 29.02. 13:00 3000 m 8/8 8/8 - - -
Do, 29.02. 7:00 30 m 3/8 1/8 - - -
Do, 29.02. 1:00 3600 m 5/8 2/8 - - -
Mi, 28.02. 19:00 4200 m 8/8 8/8 - - -
Mi, 28.02. 13:00 7800 m 5/8 0/8 - - -
Mi, 28.02. 7:00 <30 m 8/8 0/8 - - -
Ortszeit Bedeckungsgrad in Achtel und Wolkenuntergrenze
Fr, 01.03. 1:30 keine Wolken
Fr, 01.03. 1:20 keine Wolken
Fr, 01.03. 1:10 keine Wolken
Fr, 01.03. 1:00 1(5100m)
Fr, 01.03. 0:50 1(5100m)
Fr, 01.03. 0:40 3
Fr, 01.03. 0:30 8(5100m)
Fr, 01.03. 0:00 1(780m) 7(5100m)
Do, 29.02. 23:30 keine Wolken
Do, 29.02. 23:00 7(4800m)
Do, 29.02. 22:30 7(4500m) 7(5100m)
Ortszeit Luftdruck NN (hPa) Tendenz (hPa in 3 Std.)
Fr, 01.03. 1:00 1006 - 1,3
Do, 29.02. 19:00 1008 - 1,4
Do, 29.02. 13:00 1013 - 2,0
Do, 29.02. 7:00 1017 - 1,7
Do, 29.02. 1:00 1021 - 1,4
Mi, 28.02. 19:00 1022 - 0,2
Mi, 28.02. 13:00 1022 0,0
Mi, 28.02. 7:00 1023 + 1,2
Ortszeit Luftdruck NN (hPa) Tendenz (hPa in 3 Std.)
Fr, 01.03. 1:30 1006 - 1,3
Fr, 01.03. 1:20 1006 keine Meldung
Fr, 01.03. 1:10 1006 keine Meldung
Fr, 01.03. 1:00 1006 - 1,3
Fr, 01.03. 0:50 1006 keine Meldung
Fr, 01.03. 0:40 1006 keine Meldung
Fr, 01.03. 0:30 1006 - 1,3
Fr, 01.03. 0:00 1007 - 1,3
Do, 29.02. 23:30 1007 - 1,4
Do, 29.02. 23:00 1007 - 1,3
Do, 29.02. 22:30 1007 - 1,3
Ortszeit Schneehöhe (cm)
Fr, 01.03. 1:00 0
Do, 29.02. 19:00 0
Do, 29.02. 13:00 0
Do, 29.02. 7:00 0
Do, 29.02. 1:00 0
Mi, 28.02. 19:00 0
Mi, 28.02. 13:00 0
Mi, 28.02. 7:00 0
Ortszeit Schneehöhe (cm)
Fr, 01.03. 1:30 0
Fr, 01.03. 1:20 0
Fr, 01.03. 1:10 -
Fr, 01.03. 1:00 0
Fr, 01.03. 0:50 0
Fr, 01.03. 0:40 -
Fr, 01.03. 0:30 0
Fr, 01.03. 0:00 0
Do, 29.02. 23:30 0
Do, 29.02. 23:00 0
Do, 29.02. 22:30 0
Link zu dieser Seite / Seite empfehlen

Das Wetter in ...